Time;durP1;ratioP1;P1;durP2;ratioP2;P2;SDS_P1;SDS_P2;PMS_P1;PMS_P2;Temp;Humidity;BMP_temperature;BMP_pressure;BME280_temperature;BME280_humidity;BME280_pressure;Samples;Min_cycle;Max_cycle;Signal;HPM_P1;HPM_P2
2021/10/08 00:00:14;;;;;;;14.10;6.50;;;;;;;;;;5083406;28;20093;-63
2021/10/08 00:02:42;;;;;;;17.50;7.38;;;;;;;;;;5084075;28;20102;-64
2021/10/08 00:05:11;;;;;;;20.27;7.90;;;;;;;;;;5071756;28;20097;-64
2021/10/08 00:07:39;;;;;;;14.40;7.47;;;;;;;;;;5079829;28;20053;-66
2021/10/08 00:10:08;;;;;;;12.85;7.03;;;;;;;;;;5088134;28;20120;-63
2021/10/08 00:12:36;;;;;;;17.75;6.90;;;;;;;;;;5074448;28;20044;-64
2021/10/08 00:15:05;;;;;;;16.45;6.68;;;;;;;;;;5074743;28;20135;-64
2021/10/08 00:17:35;;;;;;;13.95;6.97;;;;;;;;;;5079913;28;20098;-66
2021/10/08 00:20:03;;;;;;;14.23;6.78;;;;;;;;;;5072182;28;20061;-63
2021/10/08 00:22:32;;;;;;;14.82;7.45;;;;;;;;;;5082181;28;20496;-64
2021/10/08 00:25:01;;;;;;;14.23;6.63;;;;;;;;;;5083232;28;20072;-66
2021/10/08 00:27:29;;;;;;;15.85;7.70;;;;;;;;;;5052360;28;20136;-64
2021/10/08 00:29:57;;;;;;;14.57;6.50;;;;;;;;;;5072345;28;20706;-64
2021/10/08 00:32:25;;;;;;;14.40;6.50;;;;;;;;;;5077591;28;20044;-66
2021/10/08 00:34:55;;;;;;;12.00;6.68;;;;;;;;;;5075921;28;20400;-64
2021/10/08 00:37:23;;;;;;;15.80;7.30;;;;;;;;;;5075917;28;20135;-65
2021/10/08 00:39:51;;;;;;;11.85;6.85;;;;;;;;;;5075717;28;20070;-63
2021/10/08 00:42:21;;;;;;;14.40;7.38;;;;;;;;;;5082956;28;20062;-64
2021/10/08 00:44:49;;;;;;;14.18;7.50;;;;;;;;;;5055370;28;20085;-63
2021/10/08 00:47:17;;;;;;;14.30;6.90;;;;;;;;;;5066117;28;20135;-65
2021/10/08 00:49:45;;;;;;;14.57;7.32;;;;;;;;;;5076715;28;20091;-65
2021/10/08 00:52:15;;;;;;;17.38;7.53;;;;;;;;;;5072380;28;20048;-66
2021/10/08 00:54:43;;;;;;;15.82;7.32;;;;;;;;;;5073962;28;20075;-64
2021/10/08 00:57:11;;;;;;;14.23;6.95;;;;;;;;;;5086876;28;20138;-64
2021/10/08 00:59:40;;;;;;;15.05;7.60;;;;;;;;;;5069557;28;20056;-64
2021/10/08 01:02:08;;;;;;;15.00;7.15;;;;;;;;;;5071944;28;20527;-65
2021/10/08 01:04:36;;;;;;;18.00;6.97;;;;;;;;;;5058226;28;20127;-63
2021/10/08 01:07:05;;;;;;;17.15;7.75;;;;;;;;;;5068916;28;20558;-64
2021/10/08 01:09:34;;;;;;;14.77;7.47;;;;;;;;;;5075800;28;20484;-64
2021/10/08 01:12:03;;;;;;;18.80;7.32;;;;;;;;;;5080977;28;20098;-63
2021/10/08 01:14:31;;;;;;;15.15;6.90;;;;;;;;;;5070856;28;20091;-64
2021/10/08 01:16:59;;;;;;;16.48;6.78;;;;;;;;;;5077460;28;20055;-64
2021/10/08 01:19:27;;;;;;;18.50;6.75;;;;;;;;;;5082353;28;20094;-63
2021/10/08 01:21:57;;;;;;;16.65;7.22;;;;;;;;;;5057705;28;20051;-65
2021/10/08 01:24:25;;;;;;;13.57;7.18;;;;;;;;;;5080424;28;20140;-70
2021/10/08 01:26:54;;;;;;;15.93;7.47;;;;;;;;;;5071448;28;20127;-64
2021/10/08 01:29:22;;;;;;;15.98;7.25;;;;;;;;;;5068093;28;20045;-63
2021/10/08 01:31:50;;;;;;;17.67;7.65;;;;;;;;;;5083403;28;20075;-67
2021/10/08 01:34:19;;;;;;;13.55;6.60;;;;;;;;;;5084896;28;20123;-63
2021/10/08 01:36:47;;;;;;;13.23;7.32;;;;;;;;;;5068773;28;20496;-66
2021/10/08 01:39:16;;;;;;;16.83;7.65;;;;;;;;;;5065369;28;20053;-64
2021/10/08 01:41:45;;;;;;;14.45;7.03;;;;;;;;;;5050328;28;20125;-64
2021/10/08 01:44:13;;;;;;;14.90;6.97;;;;;;;;;;5052093;28;20057;-64
2021/10/08 01:46:41;;;;;;;12.30;6.35;;;;;;;;;;5060743;28;20533;-64
2021/10/08 01:49:10;;;;;;;17.45;6.72;;;;;;;;;;5073330;28;20044;-64
2021/10/08 01:51:38;;;;;;;13.60;6.72;;;;;;;;;;5060206;28;20163;-64
2021/10/08 01:54:06;;;;;;;15.85;7.28;;;;;;;;;;5071502;28;20047;-69
2021/10/08 01:56:36;;;;;;;14.25;7.22;;;;;;;;;;5069320;28;20493;-64
2021/10/08 01:59:04;;;;;;;13.60;6.00;;;;;;;;;;5073833;28;20124;-64
2021/10/08 02:01:32;;;;;;;12.65;6.95;;;;;;;;;;5088136;28;20066;-66
2021/10/08 02:04:01;;;;;;;15.35;7.05;;;;;;;;;;5081680;28;20036;-67
2021/10/08 02:06:29;;;;;;;15.80;7.60;;;;;;;;;;5074330;28;20040;-66
2021/10/08 02:08:57;;;;;;;15.77;6.75;;;;;;;;;;5075934;28;20135;-65
2021/10/08 02:11:26;;;;;;;13.98;6.65;;;;;;;;;;5077823;28;20055;-67
2021/10/08 02:13:55;;;;;;;12.95;6.68;;;;;;;;;;5084239;28;20505;-66
2021/10/08 02:16:24;;;;;;;16.73;7.07;;;;;;;;;;5070314;28;20056;-64
2021/10/08 02:18:53;;;;;;;14.30;6.95;;;;;;;;;;5082575;28;20127;-65
2021/10/08 02:21:22;;;;;;;13.70;6.93;;;;;;;;;;5083492;28;20139;-64
2021/10/08 02:23:51;;;;;;;13.68;6.57;;;;;;;;;;5090473;28;20510;-64
2021/10/08 02:26:20;;;;;;;15.48;7.63;;;;;;;;;;5079964;28;20139;-64
2021/10/08 02:28:48;;;;;;;16.80;6.93;;;;;;;;;;5079965;28;20064;-65
2021/10/08 02:31:18;;;;;;;13.27;6.85;;;;;;;;;;5076873;28;20155;-64
2021/10/08 02:33:46;;;;;;;16.27;6.65;;;;;;;;;;5078569;28;20044;-65
2021/10/08 02:36:15;;;;;;;17.55;7.32;;;;;;;;;;5079615;28;20054;-64
2021/10/08 02:38:43;;;;;;;14.82;6.43;;;;;;;;;;5080026;28;20123;-64
2021/10/08 02:41:11;;;;;;;15.02;7.25;;;;;;;;;;5079435;28;20047;-64
2021/10/08 02:43:40;;;;;;;15.57;7.50;;;;;;;;;;5084432;28;20058;-63
2021/10/08 02:46:08;;;;;;;15.82;7.78;;;;;;;;;;5068617;28;20123;-65
2021/10/08 02:48:38;;;;;;;15.60;6.82;;;;;;;;;;5087636;28;20043;-66
2021/10/08 02:51:06;;;;;;;15.52;7.18;;;;;;;;;;5092409;28;20058;-64
2021/10/08 02:53:35;;;;;;;13.50;6.75;;;;;;;;;;5093308;28;20460;-64
2021/10/08 02:56:04;;;;;;;16.48;7.38;;;;;;;;;;5091931;28;20044;-64
2021/10/08 02:58:32;;;;;;;15.27;7.10;;;;;;;;;;5065159;28;20139;-64
2021/10/08 03:01:01;;;;;;;12.48;6.47;;;;;;;;;;5075294;28;20140;-63
2021/10/08 03:03:29;;;;;;;17.27;7.50;;;;;;;;;;5062258;28;20456;-63
2021/10/08 03:05:59;;;;;;;15.25;7.80;;;;;;;;;;5072600;28;20063;-63
2021/10/08 03:08:27;;;;;;;15.50;6.50;;;;;;;;;;5072710;28;20046;-64
2021/10/08 03:10:55;;;;;;;14.63;6.95;;;;;;;;;;5073681;28;20135;-68
2021/10/08 03:13:23;;;;;;;15.60;6.63;;;;;;;;;;5092267;28;20525;-64
2021/10/08 03:15:52;;;;;;;17.95;7.10;;;;;;;;;;5087021;28;20048;-64
2021/10/08 03:18:20;;;;;;;13.02;6.72;;;;;;;;;;5077166;28;20048;-63
2021/10/08 03:20:48;;;;;;;19.17;7.95;;;;;;;;;;5072442;28;20139;-64
2021/10/08 03:23:18;;;;;;;14.25;6.45;;;;;;;;;;5088189;28;20055;-64
2021/10/08 03:25:55;;;;;;;14.45;5.95;;;;;;;;;;3366658;28;10021764;-67
2021/10/08 03:28:23;;;;;;;14.23;7.20;;;;;;;;;;2272903;28;10002001;-64
2021/10/08 03:30:51;;;;;;;14.98;7.38;;;;;;;;;;5072977;28;20044;-63
2021/10/08 03:33:20;;;;;;;15.38;7.47;;;;;;;;;;5073432;28;20305;-65
2021/10/08 03:35:48;;;;;;;15.55;7.25;;;;;;;;;;5076435;28;20048;-66
2021/10/08 03:38:18;;;;;;;16.23;6.68;;;;;;;;;;5074490;28;20066;-63
2021/10/08 03:40:53;;;;;;;14.68;6.50;;;;;;;;;;5077029;28;20047;-67
2021/10/08 03:43:22;;;;;;;17.00;7.97;;;;;;;;;;5060533;28;20491;-64
2021/10/08 03:45:52;;;;;;;17.02;7.18;;;;;;;;;;5082407;28;20049;-64
2021/10/08 03:48:38;;;;;;;15.45;6.45;;;;;;;;;;5091367;28;20131;-64
2021/10/08 03:51:07;;;;;;;17.58;7.68;;;;;;;;;;5075478;28;20395;-64
2021/10/08 03:53:35;;;;;;;15.68;7.68;;;;;;;;;;5067805;28;20163;-64
2021/10/08 03:56:05;;;;;;;16.65;7.60;;;;;;;;;;5059554;28;20064;-65
2021/10/08 03:58:33;;;;;;;14.88;7.05;;;;;;;;;;5068779;28;20053;-63
2021/10/08 04:01:01;;;;;;;17.08;7.03;;;;;;;;;;5071510;28;20131;-63
2021/10/08 04:03:29;;;;;;;16.55;7.35;;;;;;;;;;5071091;28;20056;-65
2021/10/08 04:05:58;;;;;;;14.43;6.78;;;;;;;;;;5073755;28;20377;-66
2021/10/08 04:08:26;;;;;;;14.82;6.53;;;;;;;;;;5072399;28;20078;-66
2021/10/08 04:10:54;;;;;;;14.65;7.22;;;;;;;;;;5071489;28;20135;-64
2021/10/08 04:13:24;;;;;;;22.85;7.63;;;;;;;;;;5079958;28;20570;-63
2021/10/08 04:15:52;;;;;;;16.58;7.35;;;;;;;;;;5088140;28;20052;-63
2021/10/08 04:18:21;;;;;;;14.77;6.60;;;;;;;;;;5086967;28;20048;-64
2021/10/08 04:20:49;;;;;;;13.48;6.47;;;;;;;;;;5075129;28;20460;-63
2021/10/08 04:23:17;;;;;;;15.45;7.63;;;;;;;;;;5085087;28;20479;-64
2021/10/08 04:25:46;;;;;;;16.50;7.45;;;;;;;;;;5088024;28;20083;-64
2021/10/08 04:28:15;;;;;;;17.88;7.78;;;;;;;;;;5071842;28;20076;-64
2021/10/08 04:30:44;;;;;;;13.65;6.80;;;;;;;;;;5056000;28;20044;-65
2021/10/08 04:33:16;;;;;;;14.38;6.88;;;;;;;;;;5054147;28;21682;-64
2021/10/08 04:35:44;;;;;;;15.90;7.05;;;;;;;;;;5052676;28;20045;-65
2021/10/08 04:38:13;;;;;;;15.82;7.00;;;;;;;;;;5056290;28;20544;-66
2021/10/08 04:40:41;;;;;;;13.88;6.40;;;;;;;;;;5060096;28;20527;-64
2021/10/08 04:43:10;;;;;;;14.75;7.20;;;;;;;;;;5059462;28;20052;-67
2021/10/08 04:45:38;;;;;;;14.18;7.20;;;;;;;;;;5056792;28;20056;-65
2021/10/08 04:48:08;;;;;;;14.63;7.03;;;;;;;;;;5069368;28;20127;-64
2021/10/08 04:50:37;;;;;;;16.48;6.80;;;;;;;;;;5086702;28;20542;-67
2021/10/08 04:53:12;;;;;;;16.15;6.65;;;;;;;;;;5087612;28;20048;-63
2021/10/08 04:55:41;;;;;;;14.93;7.03;;;;;;;;;;5087336;28;20426;-64
2021/10/08 04:58:09;;;;;;;14.50;7.07;;;;;;;;;;5070883;28;20036;-64
2021/10/08 05:00:38;;;;;;;16.92;7.15;;;;;;;;;;5072820;28;20041;-65
2021/10/08 05:03:14;;;;;;;14.45;7.90;;;;;;;;;;5077566;28;20048;-64
2021/10/08 05:05:47;;;;;;;14.05;7.40;;;;;;;;;;5070728;28;20072;-64
2021/10/08 05:08:16;;;;;;;17.77;6.55;;;;;;;;;;5071945;28;20558;-66
2021/10/08 05:10:44;;;;;;;14.10;7.13;;;;;;;;;;5065257;28;20135;-69
2021/10/08 05:13:13;;;;;;;15.63;6.75;;;;;;;;;;5060578;28;20140;-64
2021/10/08 05:15:41;;;;;;;13.18;6.75;;;;;;;;;;5071105;28;20040;-63
2021/10/08 05:18:09;;;;;;;11.90;6.18;;;;;;;;;;5068661;28;20389;-64
2021/10/08 05:20:39;;;;;;;13.57;6.53;;;;;;;;;;5073977;28;20094;-69
2021/10/08 05:23:07;;;;;;;13.48;6.95;;;;;;;;;;5071096;28;20146;-67
2021/10/08 05:25:38;;;;;;;14.25;7.05;;;;;;;;;;5066293;28;20519;-70
2021/10/08 05:28:07;;;;;;;14.85;7.22;;;;;;;;;;5065664;28;20139;-65
2021/10/08 05:30:35;;;;;;;13.90;6.07;;;;;;;;;;5081252;28;20495;-64
2021/10/08 05:33:03;;;;;;;13.20;6.32;;;;;;;;;;5072024;28;20052;-64
2021/10/08 05:35:32;;;;;;;11.25;6.45;;;;;;;;;;5076972;28;20056;-64
2021/10/08 05:38:02;;;;;;;11.80;6.03;;;;;;;;;;5074778;28;20263;-63
2021/10/08 05:40:32;;;;;;;16.77;8.05;;;;;;;;;;5091417;28;20056;-64
2021/10/08 05:43:01;;;;;;;12.75;6.50;;;;;;;;;;5078369;28;20129;-63
2021/10/08 05:45:30;;;;;;;15.10;7.22;;;;;;;;;;5066404;28;20073;-64
2021/10/08 05:47:58;;;;;;;11.68;6.53;;;;;;;;;;5069849;28;20046;-65
2021/10/08 05:50:27;;;;;;;13.15;6.85;;;;;;;;;;5057441;28;20049;-64
2021/10/08 05:52:55;;;;;;;15.10;7.30;;;;;;;;;;5065711;28;20478;-66
2021/10/08 05:55:25;;;;;;;14.65;6.68;;;;;;;;;;5070476;28;20131;-64
2021/10/08 05:57:56;;;;;;;15.20;7.85;;;;;;;;;;5072512;28;20056;-65
2021/10/08 06:00:25;;;;;;;11.98;6.60;;;;;;;;;;5084525;28;20048;-65
2021/10/08 06:02:54;;;;;;;12.98;6.80;;;;;;;;;;5063996;28;20480;-64
2021/10/08 06:05:22;;;;;;;13.55;7.32;;;;;;;;;;5090654;28;20044;-64
2021/10/08 06:07:51;;;;;;;15.70;8.25;;;;;;;;;;5076678;28;20102;-64
2021/10/08 06:10:19;;;;;;;15.90;7.03;;;;;;;;;;5060351;28;20053;-65
2021/10/08 06:12:49;;;;;;;17.08;7.22;;;;;;;;;;5065073;28;20090;-66
2021/10/08 06:15:17;;;;;;;15.63;7.25;;;;;;;;;;5066328;28;20055;-64
2021/10/08 06:17:46;;;;;;;13.75;7.43;;;;;;;;;;5081505;28;20044;-64
2021/10/08 06:20:14;;;;;;;13.93;6.97;;;;;;;;;;5085663;28;20098;-64
2021/10/08 06:22:45;;;;;;;14.50;7.13;;;;;;;;;;5081532;28;20484;-65
2021/10/08 06:25:14;;;;;;;15.30;7.82;;;;;;;;;;5046654;28;20056;-65
2021/10/08 06:27:42;;;;;;;16.80;7.65;;;;;;;;;;5050637;28;20083;-66
2021/10/08 06:30:12;;;;;;;17.67;7.85;;;;;;;;;;5057643;28;20056;-65
2021/10/08 06:32:40;;;;;;;14.32;7.55;;;;;;;;;;5064693;28;20546;-66
2021/10/08 06:35:09;;;;;;;19.75;8.23;;;;;;;;;;5068293;28;20121;-64
2021/10/08 06:37:38;;;;;;;16.52;7.97;;;;;;;;;;5071895;28;20508;-64
2021/10/08 06:40:08;;;;;;;21.42;8.48;;;;;;;;;;5071187;28;20098;-64
2021/10/08 06:42:36;;;;;;;19.13;8.25;;;;;;;;;;5081257;28;20411;-67
2021/10/08 06:45:05;;;;;;;16.45;8.90;;;;;;;;;;5056580;28;20061;-64
2021/10/08 06:47:35;;;;;;;17.70;8.68;;;;;;;;;;5072661;28;20382;-63
2021/10/08 06:50:04;;;;;;;19.90;8.75;;;;;;;;;;5067677;28;20087;-64
2021/10/08 06:52:33;;;;;;;18.33;7.82;;;;;;;;;;5080122;28;20450;-65
2021/10/08 06:55:01;;;;;;;19.27;9.38;;;;;;;;;;5068420;28;20180;-65
2021/10/08 06:57:29;;;;;;;22.55;9.70;;;;;;;;;;5086996;28;20085;-67
2021/10/08 06:59:58;;;;;;;18.20;8.98;;;;;;;;;;5069753;28;20500;-66
2021/10/08 07:02:26;;;;;;;21.38;10.05;;;;;;;;;;5074174;28;20086;-65
2021/10/08 07:04:56;;;;;;;20.35;9.05;;;;;;;;;;5068836;28;20770;-65
2021/10/08 07:07:26;;;;;;;24.90;9.85;;;;;;;;;;5068403;28;20052;-65
2021/10/08 07:09:54;;;;;;;21.85;9.65;;;;;;;;;;5070425;28;20128;-64
2021/10/08 07:12:22;;;;;;;21.25;9.63;;;;;;;;;;5070797;28;20116;-64
2021/10/08 07:14:51;;;;;;;21.67;10.23;;;;;;;;;;5069331;28;20433;-64
2021/10/08 07:17:41;;;;;;;19.10;9.32;;;;;;;;;;5066576;28;20076;-64
2021/10/08 07:20:12;;;;;;;23.05;10.05;;;;;;;;;;5068591;28;20044;-63
2021/10/08 07:22:42;;;;;;;21.52;10.48;;;;;;;;;;5055404;28;20106;-64
2021/10/08 07:25:11;;;;;;;22.27;10.55;;;;;;;;;;5088005;28;20060;-67
2021/10/08 07:27:40;;;;;;;27.65;10.75;;;;;;;;;;5086809;28;20165;-65
2021/10/08 07:30:09;;;;;;;22.33;9.27;;;;;;;;;;5087636;28;20128;-64
2021/10/08 07:32:37;;;;;;;23.55;9.93;;;;;;;;;;5083516;28;20063;-66
2021/10/08 07:35:06;;;;;;;22.98;10.38;;;;;;;;;;5049466;28;20084;-64
2021/10/08 07:37:36;;;;;;;25.85;10.43;;;;;;;;;;5072597;28;20052;-64
2021/10/08 07:40:05;;;;;;;21.05;9.25;;;;;;;;;;5069509;28;20108;-65
2021/10/08 07:42:35;;;;;;;23.67;9.82;;;;;;;;;;5068421;28;20477;-65
2021/10/08 07:45:03;;;;;;;23.05;10.70;;;;;;;;;;5076249;28;20048;-64
2021/10/08 07:47:32;;;;;;;21.08;9.27;;;;;;;;;;5064856;28;20044;-64
2021/10/08 07:50:01;;;;;;;23.25;10.57;;;;;;;;;;5051764;28;20051;-64
2021/10/08 07:52:30;;;;;;;26.08;10.73;;;;;;;;;;5057597;28;20053;-64
2021/10/08 07:54:59;;;;;;;19.45;10.15;;;;;;;;;;5055778;28;20056;-64
2021/10/08 07:57:28;;;;;;;22.65;9.93;;;;;;;;;;5066515;28;20052;-64
2021/10/08 07:59:56;;;;;;;22.38;11.20;;;;;;;;;;5064872;28;20106;-66
2021/10/08 08:02:28;;;;;;;23.10;10.68;;;;;;;;;;5069408;28;20129;-64
2021/10/08 08:04:57;;;;;;;23.02;10.23;;;;;;;;;;5071785;28;20076;-66
2021/10/08 08:07:25;;;;;;;20.23;9.95;;;;;;;;;;5081872;28;20048;-64
2021/10/08 08:09:54;;;;;;;24.10;10.48;;;;;;;;;;5058579;28;20554;-64
2021/10/08 08:12:24;;;;;;;26.30;10.40;;;;;;;;;;5068327;28;20067;-64
2021/10/08 08:14:52;;;;;;;27.42;11.13;;;;;;;;;;5067133;28;20056;-64
2021/10/08 08:17:20;;;;;;;27.58;11.35;;;;;;;;;;5066511;28;20127;-64
2021/10/08 08:19:49;;;;;;;29.55;11.93;;;;;;;;;;5066561;28;20114;-64
2021/10/08 08:22:17;;;;;;;26.50;11.82;;;;;;;;;;5067791;28;20098;-63
2021/10/08 08:24:46;;;;;;;29.33;11.73;;;;;;;;;;5084677;28;20060;-65
2021/10/08 08:27:14;;;;;;;30.35;11.65;;;;;;;;;;5068173;28;20131;-64
2021/10/08 08:29:44;;;;;;;33.53;12.02;;;;;;;;;;5076972;28;20054;-64
2021/10/08 08:32:15;;;;;;;31.38;12.32;;;;;;;;;;5066232;28;20044;-64
2021/10/08 08:34:44;;;;;;;28.02;11.48;;;;;;;;;;5062803;28;20407;-64
2021/10/08 08:37:12;;;;;;;25.30;11.07;;;;;;;;;;5086947;28;20047;-65
2021/10/08 08:39:42;;;;;;;31.52;12.40;;;;;;;;;;5066556;28;20105;-64
2021/10/08 08:42:10;;;;;;;25.90;11.32;;;;;;;;;;5083746;28;20040;-65
2021/10/08 08:44:40;;;;;;;30.98;11.50;;;;;;;;;;5064467;28;20061;-64
2021/10/08 08:47:14;;;;;;;25.27;10.75;;;;;;;;;;5083506;28;20048;-64
2021/10/08 08:49:43;;;;;;;26.52;10.90;;;;;;;;;;5065705;28;20083;-64
2021/10/08 08:52:12;;;;;;;25.10;10.40;;;;;;;;;;5071365;28;20048;-65
2021/10/08 08:54:41;;;;;;;25.25;11.68;;;;;;;;;;5064184;28;20477;-65
2021/10/08 08:57:10;;;;;;;24.90;9.00;;;;;;;;;;5069090;28;20102;-65
2021/10/08 08:59:57;;;;;;;26.40;9.75;;;;;;;;;;5071963;28;20125;-64
2021/10/08 09:02:28;;;;;;;22.35;9.43;;;;;;;;;;5047876;28;20055;-65
2021/10/08 09:04:57;;;;;;;19.95;9.50;;;;;;;;;;5061962;28;20048;-65
2021/10/08 09:07:31;;;;;;;20.38;9.13;;;;;;;;;;5055255;28;20570;-64
2021/10/08 09:10:10;;;;;;;22.85;9.52;;;;;;;;;;5066787;28;20045;-65
2021/10/08 09:12:39;;;;;;;19.08;8.38;;;;;;;;;;5071109;28;20047;-66
2021/10/08 09:15:09;;;;;;;20.30;8.85;;;;;;;;;;5071199;28;20056;-64
2021/10/08 09:17:39;;;;;;;19.35;8.52;;;;;;;;;;5062994;28;20060;-64
2021/10/08 09:20:08;;;;;;;19.83;8.27;;;;;;;;;;5075685;28;20140;-64
2021/10/08 09:22:53;;;;;;;19.33;8.63;;;;;;;;;;5059769;28;20049;-64
2021/10/08 09:25:24;;;;;;;21.00;8.45;;;;;;;;;;5029663;28;20049;-63
2021/10/08 09:27:53;;;;;;;17.30;7.40;;;;;;;;;;5066354;28;20571;-64
2021/10/08 09:30:25;;;;;;;16.10;8.05;;;;;;;;;;5072183;28;20044;-64
2021/10/08 09:32:56;;;;;;;17.23;7.80;;;;;;;;;;5084148;28;20135;-64
2021/10/08 09:35:25;;;;;;;18.38;8.18;;;;;;;;;;5063694;28;20537;-64
2021/10/08 09:37:59;;;;;;;16.52;8.38;;;;;;;;;;5059784;28;20493;-66
2021/10/08 09:40:30;;;;;;;17.48;8.10;;;;;;;;;;5047007;28;20119;-66
2021/10/08 09:43:00;;;;;;;16.85;7.50;;;;;;;;;;5056716;28;20068;-66
2021/10/08 09:45:47;;;;;;;14.35;7.18;;;;;;;;;;5072385;28;20103;-67
2021/10/08 09:48:17;;;;;;;16.55;7.90;;;;;;;;;;5054816;28;20060;-64
2021/10/08 09:50:59;;;;;;;15.15;7.47;;;;;;;;;;5059494;28;20126;-65
2021/10/08 09:53:27;;;;;;;16.65;8.65;;;;;;;;;;5064816;28;20041;-67
2021/10/08 09:55:56;;;;;;;16.38;7.55;;;;;;;;;;5066092;28;20139;-67
2021/10/08 09:58:25;;;;;;;13.57;7.30;;;;;;;;;;5069411;28;20048;-64
2021/10/08 10:01:00;;;;;;;13.75;6.40;;;;;;;;;;5057594;28;20135;-64
2021/10/08 10:03:32;;;;;;;14.43;7.05;;;;;;;;;;5070274;28;20499;-64
2021/10/08 10:06:02;;;;;;;11.32;6.43;;;;;;;;;;5064871;28;20044;-64
2021/10/08 10:08:30;;;;;;;11.35;6.22;;;;;;;;;;5065803;28;20044;-64
2021/10/08 10:11:00;;;;;;;10.95;6.00;;;;;;;;;;5074464;28;20174;-64
2021/10/08 10:13:32;;;;;;;11.00;5.82;;;;;;;;;;5082097;28;20049;-65
2021/10/08 10:16:01;;;;;;;10.90;5.43;;;;;;;;;;5068244;28;20070;-64
2021/10/08 10:18:31;;;;;;;12.68;5.80;;;;;;;;;;5068868;28;20080;-65
2021/10/08 10:21:00;;;;;;;9.55;5.43;;;;;;;;;;5070722;28;20163;-65
2021/10/08 10:23:30;;;;;;;9.95;4.95;;;;;;;;;;5067957;28;20064;-66
2021/10/08 10:25:58;;;;;;;11.35;5.57;;;;;;;;;;5057089;28;20052;-67
2021/10/08 10:28:27;;;;;;;10.15;5.18;;;;;;;;;;5066214;28;20052;-67
2021/10/08 10:30:56;;;;;;;11.00;5.18;;;;;;;;;;5084581;28;20089;-65
2021/10/08 10:33:25;;;;;;;8.77;4.30;;;;;;;;;;5067690;28;20040;-65
2021/10/08 10:35:56;;;;;;;6.80;4.10;;;;;;;;;;5065070;28;20083;-64
2021/10/08 10:38:29;;;;;;;8.38;4.10;;;;;;;;;;5068704;28;20508;-65
2021/10/08 10:41:25;;;;;;;6.78;4.10;;;;;;;;;;5061453;28;20045;-65
2021/10/08 10:43:58;;;;;;;6.93;3.80;;;;;;;;;;5067461;28;20393;-64
2021/10/08 10:46:39;;;;;;;8.55;3.70;;;;;;;;;;5068145;28;20060;-66
2021/10/08 10:49:37;;;;;;;7.15;3.67;;;;;;;;;;5082895;28;20055;-64
2021/10/08 10:52:11;;;;;;;6.43;3.35;;;;;;;;;;5053085;28;20065;-65
2021/10/08 10:54:55;;;;;;;5.75;3.15;;;;;;;;;;5081992;28;20064;-66
2021/10/08 10:57:38;;;;;;;3.47;2.25;;;;;;;;;;5084075;28;20067;-64
2021/10/08 11:00:26;;;;;;;4.78;2.35;;;;;;;;;;5060063;28;20048;-65
2021/10/08 11:03:01;;;;;;;7.03;2.92;;;;;;;;;;5070492;28;20044;-66
2021/10/08 11:05:30;;;;;;;4.82;3.03;;;;;;;;;;5067755;28;20044;-64
2021/10/08 11:08:20;;;;;;;4.57;2.85;;;;;;;;;;5066024;28;20772;-65
2021/10/08 11:11:09;;;;;;;5.35;3.08;;;;;;;;;;5063738;28;20110;-66
2021/10/08 11:13:40;;;;;;;5.88;3.35;;;;;;;;;;5071305;28;20106;-64
2021/10/08 11:16:09;;;;;;;6.60;3.47;;;;;;;;;;5065927;28;20496;-64
2021/10/08 11:18:56;;;;;;;7.80;3.13;;;;;;;;;;5069716;28;20063;-65
2021/10/08 11:21:43;;;;;;;6.25;3.45;;;;;;;;;;5066339;28;20045;-65
2021/10/08 11:24:14;;;;;;;8.00;4.18;;;;;;;;;;5048221;28;20060;-64
2021/10/08 11:26:43;;;;;;;8.05;4.22;;;;;;;;;;5055646;28;20047;-64
2021/10/08 11:29:15;;;;;;;9.65;4.80;;;;;;;;;;5068492;28;20048;-64
2021/10/08 11:31:44;;;;;;;9.10;4.50;;;;;;;;;;5070523;28;20044;-64
2021/10/08 11:34:17;;;;;;;10.65;4.45;;;;;;;;;;5066628;28;20502;-64
2021/10/08 11:36:55;;;;;;;11.50;5.50;;;;;;;;;;5076434;28;20059;-64
2021/10/08 11:39:23;;;;;;;12.48;5.00;;;;;;;;;;5068411;28;20048;-64
2021/10/08 11:42:01;;;;;;;9.45;4.60;;;;;;;;;;5069306;28;20123;-64
2021/10/08 11:44:35;;;;;;;11.25;5.25;;;;;;;;;;5053450;28;20674;-63
2021/10/08 11:47:14;;;;;;;10.68;5.10;;;;;;;;;;5067963;28;20447;-64
2021/10/08 11:49:56;;;;;;;12.57;5.78;;;;;;;;;;5062493;28;20087;-63
2021/10/08 11:52:34;;;;;;;11.48;5.40;;;;;;;;;;5068723;28;20084;-64
2021/10/08 11:55:04;;;;;;;12.68;5.55;;;;;;;;;;5067874;28;20053;-64
2021/10/08 11:57:46;;;;;;;12.02;5.65;;;;;;;;;;5071521;28;20064;-67
2021/10/08 12:00:16;;;;;;;11.35;5.80;;;;;;;;;;5061671;28;20069;-63
2021/10/08 12:02:55;;;;;;;12.07;5.85;;;;;;;;;;5072703;28;20149;-64
2021/10/08 12:05:24;;;;;;;13.15;5.65;;;;;;;;;;5068756;28;20041;-63
2021/10/08 12:07:58;;;;;;;12.00;5.57;;;;;;;;;;5069946;28;20048;-63
2021/10/08 12:10:27;;;;;;;10.63;5.82;;;;;;;;;;5062252;28;20052;-66
2021/10/08 12:12:56;;;;;;;13.68;7.10;;;;;;;;;;5062924;28;20131;-64
2021/10/08 12:15:27;;;;;;;13.00;7.07;;;;;;;;;;5070813;28;20052;-63
2021/10/08 12:17:56;;;;;;;15.90;6.88;;;;;;;;;;5068976;28;20150;-63
2021/10/08 12:20:26;;;;;;;14.15;6.30;;;;;;;;;;5070709;28;20129;-63
2021/10/08 12:23:14;;;;;;;14.52;6.60;;;;;;;;;;5068404;28;20492;-63
2021/10/08 12:25:43;;;;;;;12.73;6.25;;;;;;;;;;5067352;28;20048;-64
2021/10/08 12:28:11;;;;;;;10.48;6.22;;;;;;;;;;5068430;28;20044;-63
2021/10/08 12:30:54;;;;;;;16.02;7.68;;;;;;;;;;5061714;28;20063;-63
2021/10/08 12:33:34;;;;;;;15.18;7.53;;;;;;;;;;5051818;28;20429;-65
2021/10/08 12:36:12;;;;;;;14.35;6.70;;;;;;;;;;5052318;28;20053;-64
2021/10/08 12:38:54;;;;;;;17.10;6.85;;;;;;;;;;5068673;28;20067;-66
2021/10/08 12:41:24;;;;;;;13.07;6.68;;;;;;;;;;5069854;28;20056;-63
2021/10/08 12:44:03;;;;;;;13.40;7.03;;;;;;;;;;5059891;28;20394;-63
2021/10/08 12:46:36;;;;;;;12.93;6.18;;;;;;;;;;5054399;28;20511;-63
2021/10/08 12:49:05;;;;;;;14.15;7.18;;;;;;;;;;5065983;28;20785;-63
2021/10/08 12:51:44;;;;;;;17.10;7.72;;;;;;;;;;5064101;28;20143;-64
2021/10/08 12:54:17;;;;;;;12.60;6.97;;;;;;;;;;5055996;28;20049;-63
2021/10/08 12:56:45;;;;;;;14.95;7.70;;;;;;;;;;5050649;28;20053;-66
2021/10/08 12:59:14;;;;;;;13.88;7.28;;;;;;;;;;5059466;28;20127;-63
2021/10/08 13:01:57;;;;;;;16.58;7.95;;;;;;;;;;5068610;28;20126;-63
2021/10/08 13:04:26;;;;;;;13.50;6.80;;;;;;;;;;5073075;28;20094;-62
2021/10/08 13:07:09;;;;;;;15.60;7.82;;;;;;;;;;5081546;28;20564;-63
2021/10/08 13:09:37;;;;;;;18.35;7.72;;;;;;;;;;5058605;28;20155;-64
2021/10/08 13:12:06;;;;;;;13.73;7.32;;;;;;;;;;5074443;28;20131;-63
2021/10/08 13:14:34;;;;;;;19.33;8.65;;;;;;;;;;5059308;28;20044;-63
2021/10/08 13:17:19;;;;;;;14.57;6.75;;;;;;;;;;5080830;28;20052;-63
2021/10/08 13:19:48;;;;;;;12.88;7.15;;;;;;;;;;5068927;28;20082;-64
2021/10/08 13:22:23;;;;;;;16.80;7.38;;;;;;;;;;5068317;28;20052;-64
2021/10/08 13:24:53;;;;;;;15.32;7.55;;;;;;;;;;5064679;28;20090;-65
2021/10/08 13:27:22;;;;;;;14.38;7.00;;;;;;;;;;5049783;28;20415;-66
2021/10/08 13:29:50;;;;;;;17.25;7.85;;;;;;;;;;5060120;28;20504;-63
2021/10/08 13:32:20;;;;;;;14.30;7.80;;;;;;;;;;5067076;28;20055;-63
2021/10/08 13:34:48;;;;;;;14.77;6.85;;;;;;;;;;5056990;28;20102;-63
2021/10/08 13:37:17;;;;;;;16.90;7.35;;;;;;;;;;5065216;28;20492;-65
2021/10/08 13:39:45;;;;;;;17.10;8.35;;;;;;;;;;5055735;28;20563;-65
2021/10/08 13:42:14;;;;;;;15.88;7.18;;;;;;;;;;5066978;28;20077;-65
2021/10/08 13:44:42;;;;;;;15.43;7.65;;;;;;;;;;5072867;28;20126;-63
2021/10/08 13:47:11;;;;;;;14.05;7.10;;;;;;;;;;5060195;28;20076;-64
2021/10/08 13:49:41;;;;;;;15.73;7.20;;;;;;;;;;5068680;28;20052;-64
2021/10/08 13:52:10;;;;;;;15.05;7.13;;;;;;;;;;5060912;28;20056;-65
2021/10/08 13:54:38;;;;;;;13.82;6.68;;;;;;;;;;5062526;28;20044;-64
2021/10/08 13:57:07;;;;;;;14.98;7.07;;;;;;;;;;5058165;28;20051;-63
2021/10/08 13:59:35;;;;;;;15.00;7.07;;;;;;;;;;5063914;28;20048;-63
2021/10/08 14:02:07;;;;;;;16.02;8.18;;;;;;;;;;5060830;28;20048;-63
2021/10/08 14:04:39;;;;;;;14.23;7.07;;;;;;;;;;5063504;28;20052;-64
2021/10/08 14:07:24;;;;;;;15.05;7.57;;;;;;;;;;5068744;28;20090;-63
2021/10/08 14:12:35;;;;;;;15.13;7.85;;;;;;;;;;5040935;28;20056;-64
2021/10/08 14:15:03;;;;;;;13.50;7.45;;;;;;;;;;5066297;28;20048;-63
2021/10/08 14:17:32;;;;;;;18.92;7.80;;;;;;;;;;5057607;28;20537;-65
2021/10/08 14:20:03;;;;;;;14.40;7.65;;;;;;;;;;5054387;28;20044;-64
2021/10/08 14:22:33;;;;;;;15.15;7.35;;;;;;;;;;5050825;28;20072;-63
2021/10/08 14:25:02;;;;;;;12.93;7.22;;;;;;;;;;5058672;28;20102;-64
2021/10/08 14:27:33;;;;;;;15.27;7.00;;;;;;;;;;5056986;28;20140;-67
2021/10/08 14:30:03;;;;;;;15.30;7.45;;;;;;;;;;5057252;28;20199;-67
2021/10/08 14:32:31;;;;;;;14.48;6.55;;;;;;;;;;5058707;28;20048;-63
2021/10/08 14:35:01;;;;;;;16.73;8.50;;;;;;;;;;5057135;28;20060;-66
2021/10/08 14:37:29;;;;;;;13.15;7.18;;;;;;;;;;5051721;28;20111;-65
2021/10/08 14:39:59;;;;;;;14.90;6.57;;;;;;;;;;5052738;28;20076;-67
2021/10/08 14:42:27;;;;;;;13.40;6.95;;;;;;;;;;5052524;28;20058;-67
2021/10/08 14:44:56;;;;;;;15.45;7.60;;;;;;;;;;5080011;28;20063;-64
2021/10/08 14:47:24;;;;;;;17.20;8.02;;;;;;;;;;5075886;28;20488;-62
2021/10/08 14:49:53;;;;;;;16.30;8.15;;;;;;;;;;5059833;28;20569;-64